createdAt,value
2023-02-17T00:01:19.298Z,59.50
2023-02-17T00:04:14.462Z,55.80
2023-02-17T00:06:57.529Z,61.40
2023-02-17T00:09:56.863Z,60.90
2023-02-17T00:12:30.019Z,59.50
2023-02-17T00:15:08.022Z,58.50
2023-02-17T00:17:45.274Z,56.90
2023-02-17T00:20:32.281Z,56.10
2023-02-17T00:23:21.542Z,57.40
2023-02-17T00:25:59.804Z,57.00
2023-02-17T00:28:37.342Z,59.00
2023-02-17T00:31:20.752Z,61.60
2023-02-17T00:34:02.454Z,56.90
2023-02-17T00:36:42.648Z,56.70
2023-02-17T00:39:21.058Z,55.90
2023-02-17T00:42:02.060Z,54.30
2023-02-17T00:44:43.590Z,54.00
2023-02-17T00:47:45.485Z,54.30
2023-02-17T00:50:23.900Z,53.80
2023-02-17T00:52:59.364Z,53.10
2023-02-17T00:55:41.446Z,50.80
2023-02-17T00:58:35.905Z,50.40
2023-02-17T01:01:15.456Z,49.90
2023-02-17T01:03:59.551Z,48.30
2023-02-17T01:06:38.711Z,48.00
2023-02-17T01:09:18.495Z,51.00
2023-02-17T01:12:00.972Z,54.50
2023-02-17T01:14:36.920Z,54.10
2023-02-17T01:17:20.652Z,78.90
2023-02-17T01:19:56.827Z,74.90
2023-02-17T01:22:35.733Z,64.80
2023-02-17T01:25:14.071Z,60.00
2023-02-17T01:27:55.233Z,56.40
2023-02-17T01:30:33.226Z,52.90
2023-02-17T01:33:13.516Z,49.80
2023-02-17T01:35:56.494Z,50.80
2023-02-17T01:38:37.629Z,50.10
2023-02-17T01:41:18.647Z,47.30
2023-02-17T01:44:33.557Z,50.90
2023-02-17T01:47:18.382Z,50.90
2023-02-17T01:49:59.854Z,52.60
2023-02-17T01:52:46.828Z,52.90
2023-02-17T01:55:26.737Z,53.40
2023-02-17T01:58:12.750Z,52.50
2023-02-17T02:00:57.082Z,47.40
2023-02-17T02:03:56.233Z,46.50
2023-02-17T02:06:49.308Z,48.00
2023-02-17T02:09:46.027Z,51.00
2023-02-17T02:12:30.517Z,47.00
2023-02-17T02:15:19.437Z,45.70
2023-02-17T02:18:15.884Z,45.90
2023-02-17T02:21:22.370Z,44.50
2023-02-17T02:24:10.982Z,44.10
2023-02-17T02:27:25.660Z,45.20
2023-02-17T02:30:28.101Z,43.00
2023-02-17T02:33:25.279Z,43.60
2023-02-17T02:36:09.690Z,43.60
2023-02-17T02:38:59.057Z,43.50
2023-02-17T02:41:43.957Z,43.80
2023-02-17T02:44:30.021Z,42.70
2023-02-17T02:47:45.443Z,42.00
2023-02-17T02:50:29.788Z,42.40
2023-02-17T02:53:25.867Z,43.50
2023-02-17T02:56:14.216Z,43.10
2023-02-17T02:59:02.731Z,42.70
2023-02-17T03:01:50.736Z,40.40
2023-02-17T03:04:37.767Z,40.40
2023-02-17T03:07:26.030Z,40.90
2023-02-17T03:10:05.722Z,40.20
2023-02-17T03:12:44.481Z,42.00
2023-02-17T03:15:32.592Z,42.00
2023-02-17T03:18:11.090Z,42.70
2023-02-17T03:20:54.992Z,41.90
2023-02-17T03:23:30.736Z,42.70
2023-02-17T03:26:09.696Z,42.50
2023-02-17T03:28:51.082Z,42.40
2023-02-17T03:31:30.716Z,41.80
2023-02-17T03:34:11.461Z,41.90
2023-02-17T03:36:54.566Z,42.90
2023-02-17T03:39:34.005Z,41.20
2023-02-17T03:42:15.956Z,42.00
2023-02-17T03:44:56.489Z,42.80
2023-02-17T03:47:38.532Z,43.10
2023-02-17T03:50:27.482Z,42.50
2023-02-17T03:53:24.757Z,41.80
2023-02-17T03:56:05.396Z,43.70
2023-02-17T03:58:43.041Z,42.00
2023-02-17T04:01:23.433Z,42.60
2023-02-17T04:04:04.582Z,42.50
2023-02-17T04:06:52.008Z,42.20
2023-02-17T04:09:35.112Z,42.90
2023-02-17T04:12:14.074Z,42.60
2023-02-17T04:14:51.144Z,42.70
2023-02-17T04:17:27.218Z,42.00
2023-02-17T04:20:15.272Z,42.00
2023-02-17T04:22:54.834Z,42.50
2023-02-17T04:25:31.706Z,41.90
2023-02-17T04:28:08.903Z,41.60
2023-02-17T04:30:49.707Z,40.80
2023-02-17T04:33:24.024Z,42.50
2023-02-17T04:36:06.135Z,40.40
2023-02-17T04:38:48.271Z,42.60
2023-02-17T04:41:32.313Z,40.50
2023-02-17T04:44:16.282Z,40.90
2023-02-17T04:46:54.294Z,42.00
2023-02-17T04:49:30.923Z,42.00
2023-02-17T04:52:10.919Z,41.90
2023-02-17T04:54:53.970Z,40.60
2023-02-17T04:57:33.313Z,41.90
2023-02-17T05:00:23.885Z,39.70
2023-02-17T05:02:59.963Z,42.00
2023-02-17T05:05:41.865Z,41.30
2023-02-17T05:08:18.023Z,41.00
2023-02-17T05:10:56.819Z,40.50
2023-02-17T05:13:50.680Z,40.90
2023-02-17T05:16:28.141Z,39.60
2023-02-17T05:19:13.635Z,40.00
2023-02-17T05:22:02.184Z,39.20
2023-02-17T05:24:41.506Z,39.70
2023-02-17T05:27:21.531Z,41.60
2023-02-17T05:30:01.269Z,39.60
2023-02-17T05:32:39.254Z,38.70
2023-02-17T05:35:18.414Z,39.60
2023-02-17T05:37:58.214Z,43.50
2023-02-17T05:40:49.786Z,44.40
2023-02-17T05:43:27.768Z,41.20
2023-02-17T05:46:10.319Z,44.00
2023-02-17T05:48:52.987Z,38.10
2023-02-17T05:51:38.430Z,35.80
2023-02-17T05:54:30.373Z,36.30
2023-02-17T05:57:10.196Z,36.10
2023-02-17T05:59:56.422Z,36.00
2023-02-17T06:02:44.741Z,36.00
2023-02-17T06:05:25.997Z,36.60
2023-02-17T06:08:14.463Z,35.50
2023-02-17T06:10:54.316Z,33.70
2023-02-17T06:13:30.360Z,35.70
2023-02-17T06:16:10.965Z,35.20
2023-02-17T06:18:54.492Z,36.70
2023-02-17T06:21:38.875Z,36.80
2023-02-17T06:24:35.752Z,35.50
2023-02-17T06:27:22.783Z,35.70
2023-02-17T06:30:03.215Z,36.90
2023-02-17T06:32:43.293Z,34.70
2023-02-17T06:35:25.169Z,35.60
2023-02-17T06:38:00.934Z,35.50
2023-02-17T06:40:55.202Z,36.20
2023-02-17T06:43:44.974Z,36.80
2023-02-17T06:46:27.635Z,36.90
2023-02-17T06:49:03.918Z,36.80
2023-02-17T06:51:40.386Z,36.90
2023-02-17T06:54:24.868Z,35.90
2023-02-17T06:57:06.105Z,36.40
2023-02-17T06:59:48.206Z,37.10
2023-02-17T07:02:29.337Z,38.20
2023-02-17T07:05:10.777Z,43.50
2023-02-17T07:07:54.006Z,43.60
2023-02-17T07:10:33.895Z,48.80
2023-02-17T07:13:10.083Z,51.60
2023-02-17T07:15:52.237Z,52.00
2023-02-17T07:18:30.942Z,51.20
2023-02-17T07:21:12.546Z,60.50
2023-02-17T07:23:47.104Z,58.80
2023-02-17T07:26:27.309Z,53.20
2023-02-17T07:29:04.680Z,50.50
2023-02-17T07:31:40.297Z,50.40
2023-02-17T07:34:17.389Z,46.80
2023-02-17T07:36:58.274Z,49.50
2023-02-17T07:39:37.812Z,46.50
2023-02-17T07:42:14.692Z,48.70
2023-02-17T07:44:51.981Z,53.90
2023-02-17T07:47:28.371Z,46.40
2023-02-17T07:50:03.698Z,47.10
2023-02-17T07:52:42.354Z,46.40
2023-02-17T07:55:21.482Z,49.70
2023-02-17T07:58:03.066Z,49.90
2023-02-17T08:00:39.333Z,47.70
2023-02-17T08:03:12.127Z,46.90
2023-02-17T08:05:48.140Z,46.20
2023-02-17T08:08:43.172Z,44.30
2023-02-17T08:11:39.205Z,46.30
2023-02-17T08:14:16.222Z,45.90
2023-02-17T08:16:55.140Z,45.30
2023-02-17T08:19:47.014Z,45.70
2023-02-17T08:22:27.724Z,47.40
2023-02-17T08:25:07.613Z,46.80
2023-02-17T08:27:49.862Z,48.60
2023-02-17T08:30:36.689Z,48.80
2023-02-17T08:33:18.107Z,48.50
2023-02-17T08:35:54.614Z,49.60
2023-02-17T08:38:36.616Z,50.30
2023-02-17T08:41:23.796Z,49.00
2023-02-17T08:43:59.287Z,50.50
2023-02-17T08:46:41.327Z,51.00
2023-02-17T08:49:19.582Z,53.20
2023-02-17T08:52:00.990Z,60.70
2023-02-17T08:54:43.066Z,54.50
2023-02-17T08:57:22.493Z,59.00
2023-02-17T09:00:03.701Z,56.10
2023-02-17T09:02:45.854Z,67.90
2023-02-17T09:05:33.564Z,60.30
2023-02-17T09:08:34.780Z,53.30
2023-02-17T09:11:13.320Z,54.20
2023-02-17T09:13:49.996Z,52.90
2023-02-17T09:16:25.897Z,51.00
2023-02-17T09:19:08.463Z,51.60
2023-02-17T09:21:44.771Z,52.80
2023-02-17T09:24:34.341Z,52.40
2023-02-17T09:27:24.557Z,51.70
2023-02-17T09:30:04.071Z,54.00
2023-02-17T09:32:57.164Z,49.90
2023-02-17T09:35:38.601Z,51.10
2023-02-17T09:38:18.665Z,51.90
2023-02-17T09:41:02.285Z,51.50
2023-02-17T09:43:39.270Z,53.30
2023-02-17T09:46:24.554Z,51.60
2023-02-17T09:49:08.313Z,50.50
2023-02-17T09:51:52.154Z,52.70
2023-02-17T09:54:36.701Z,52.30
2023-02-17T09:57:20.855Z,51.10
2023-02-17T10:00:11.076Z,51.90
2023-02-17T10:02:59.208Z,55.20
2023-02-17T10:05:39.357Z,53.80
2023-02-17T10:08:24.491Z,52.30
2023-02-17T10:11:07.501Z,51.20
2023-02-17T10:13:49.232Z,51.90
2023-02-17T10:16:38.936Z,52.50
2023-02-17T10:19:22.088Z,51.00
2023-02-17T10:22:12.049Z,55.00
2023-02-17T10:25:15.759Z,53.10
2023-02-17T10:28:01.304Z,51.90
2023-02-17T10:30:51.265Z,50.80
2023-02-17T10:33:39.542Z,51.50
2023-02-17T10:36:29.914Z,51.00
2023-02-17T10:39:17.292Z,50.00
2023-02-17T10:41:56.634Z,50.60
2023-02-17T10:44:36.725Z,51.30
2023-02-17T10:47:17.776Z,49.30
2023-02-17T10:50:13.805Z,48.60
2023-02-17T10:52:51.056Z,48.80
2023-02-17T10:55:40.552Z,47.70
2023-02-17T10:58:30.497Z,46.80
2023-02-17T11:01:10.035Z,46.20
2023-02-17T11:03:50.449Z,45.30
2023-02-17T11:06:27.512Z,45.20
2023-02-17T11:09:30.035Z,44.50
2023-02-17T11:12:17.760Z,46.50
2023-02-17T11:15:05.289Z,43.10
2023-02-17T11:17:51.243Z,53.10
2023-02-17T11:20:53.400Z,44.40
2023-02-17T11:23:31.122Z,48.80
2023-02-17T11:26:24.131Z,45.30
2023-02-17T11:29:12.767Z,46.70
2023-02-17T11:32:07.663Z,56.30
2023-02-17T11:35:00.995Z,52.60
2023-02-17T11:37:44.767Z,46.10
2023-02-17T11:40:35.629Z,48.10
2023-02-17T11:43:21.810Z,54.40
2023-02-17T11:46:12.641Z,46.50
2023-02-17T11:49:32.752Z,47.70
2023-02-17T11:52:34.356Z,44.50
2023-02-17T11:55:25.616Z,53.10
2023-02-17T11:58:17.869Z,51.20
2023-02-17T12:01:05.150Z,45.20
2023-02-17T12:06:54.964Z,38.40
2023-02-17T12:09:42.717Z,48.70
2023-02-17T12:12:24.866Z,53.00
2023-02-17T12:15:17.963Z,49.00
2023-02-17T12:17:58.525Z,45.70
2023-02-17T12:20:56.500Z,44.70
2023-02-17T12:23:54.349Z,49.40
2023-02-17T12:26:42.608Z,48.40
2023-02-17T12:29:34.276Z,42.40
2023-02-17T12:32:34.910Z,52.60
2023-02-17T12:35:21.348Z,44.70
2023-02-17T12:38:05.725Z,55.90
2023-02-17T12:40:45.972Z,54.80
2023-02-17T12:43:42.545Z,47.40
2023-02-17T12:46:25.476Z,57.00
2023-02-17T12:49:10.954Z,41.10
2023-02-17T12:51:53.798Z,41.80
2023-02-17T12:54:35.870Z,49.20
2023-02-17T12:57:22.897Z,48.00
2023-02-17T13:00:03.606Z,53.50
2023-02-17T13:02:44.957Z,42.70
2023-02-17T13:05:31.479Z,49.50
2023-02-17T13:08:19.285Z,48.70
2023-02-17T13:11:05.611Z,48.30
2023-02-17T13:13:42.844Z,48.90
2023-02-17T13:16:23.696Z,50.40
2023-02-17T13:19:11.736Z,46.60
2023-02-17T13:21:59.423Z,46.70
2023-02-17T13:24:40.987Z,46.60
2023-02-17T13:27:33.560Z,45.30
2023-02-17T13:30:28.859Z,45.40
2023-02-17T13:33:10.805Z,48.00
2023-02-17T13:35:48.789Z,44.70
2023-02-17T13:38:35.408Z,46.20
2023-02-17T13:41:15.363Z,44.60
2023-02-17T13:43:50.298Z,44.20
2023-02-17T13:46:28.442Z,44.00
2023-02-17T13:49:27.865Z,42.70
2023-02-17T13:52:23.998Z,40.60
2023-02-17T13:55:08.494Z,40.50
2023-02-17T13:57:45.936Z,40.40
2023-02-17T14:00:32.853Z,40.20
2023-02-17T14:03:24.780Z,39.20
2023-02-17T14:06:02.231Z,39.10
2023-02-17T14:08:44.251Z,37.00
2023-02-17T14:11:23.144Z,37.00
2023-02-17T14:13:58.974Z,35.90
2023-02-17T14:16:39.123Z,37.40
2023-02-17T14:19:18.483Z,37.70
2023-02-17T14:22:06.301Z,37.70
2023-02-17T14:24:43.251Z,37.90
2023-02-17T14:27:20.525Z,36.60
2023-02-17T14:30:02.817Z,38.20
2023-02-17T14:32:44.914Z,37.30
2023-02-17T14:35:27.647Z,42.00
2023-02-17T14:38:26.384Z,37.50
2023-02-17T14:41:02.841Z,37.80
2023-02-17T14:43:44.926Z,37.90
2023-02-17T14:46:21.245Z,38.10
2023-02-17T14:48:56.131Z,37.20
2023-02-17T14:51:38.675Z,37.60
2023-02-17T14:54:19.531Z,36.00
2023-02-17T14:57:08.357Z,36.70
2023-02-17T14:59:45.310Z,35.30
2023-02-17T15:02:23.442Z,36.70
2023-02-17T15:04:59.161Z,36.90
2023-02-17T15:07:35.777Z,36.40
2023-02-17T15:10:22.444Z,36.50
2023-02-17T15:12:59.383Z,35.30
2023-02-17T15:15:35.824Z,35.80
2023-02-17T15:18:11.985Z,36.30
2023-02-17T15:20:50.095Z,36.60
2023-02-17T15:23:27.486Z,35.00
2023-02-17T15:26:03.902Z,36.60
2023-02-17T15:28:40.970Z,33.90
2023-02-17T15:31:21.592Z,34.10
2023-02-17T15:34:00.560Z,31.50
2023-02-17T15:36:35.293Z,30.10
2023-02-17T15:39:14.173Z,35.20
2023-02-17T15:41:49.613Z,35.40
2023-02-17T15:44:31.912Z,35.40
2023-02-17T15:47:09.110Z,37.20
2023-02-17T15:49:48.546Z,29.60
2023-02-17T15:52:30.067Z,31.20
2023-02-17T15:55:20.506Z,37.00
2023-02-17T15:57:56.732Z,35.90
2023-02-17T16:00:38.438Z,32.00
2023-02-17T16:03:14.864Z,33.20
2023-02-17T16:05:53.854Z,31.00
2023-02-17T16:08:28.552Z,29.70
2023-02-17T16:11:06.583Z,29.60
2023-02-17T16:13:53.269Z,30.10
2023-02-17T16:16:34.093Z,30.50
2023-02-17T16:19:14.297Z,29.00
2023-02-17T16:21:50.319Z,30.50
2023-02-17T16:24:25.383Z,26.80
2023-02-17T16:27:00.838Z,29.60
2023-02-17T16:29:40.268Z,28.80
2023-02-17T16:32:19.839Z,29.50
2023-02-17T16:35:02.264Z,25.30
2023-02-17T16:37:39.405Z,26.00
2023-02-17T16:40:33.842Z,25.90
2023-02-17T16:43:15.521Z,23.90
2023-02-17T16:45:57.186Z,25.50
2023-02-17T16:48:40.507Z,26.50
2023-02-17T16:51:17.315Z,27.40
2023-02-17T16:53:52.112Z,28.40
2023-02-17T16:56:37.235Z,24.70
2023-02-17T16:59:19.188Z,23.30
2023-02-17T17:01:59.468Z,24.80
2023-02-17T17:04:37.508Z,22.90
2023-02-17T17:07:16.468Z,24.40
2023-02-17T17:10:15.463Z,39.70
2023-02-17T17:12:50.622Z,27.60
2023-02-17T17:15:32.416Z,26.80
2023-02-17T17:18:11.360Z,27.60
2023-02-17T17:20:51.246Z,29.50
2023-02-17T17:23:35.920Z,28.90
2023-02-17T17:26:23.901Z,29.80
2023-02-17T17:29:19.412Z,29.80
2023-02-17T17:31:58.047Z,29.10
2023-02-17T17:34:42.438Z,29.00
2023-02-17T17:37:21.956Z,30.40
2023-02-17T17:39:56.537Z,30.30
2023-02-17T17:42:31.373Z,27.30
2023-02-17T17:45:13.365Z,29.60
2023-02-17T17:48:06.390Z,31.30
2023-02-17T17:50:45.932Z,28.60
2023-02-17T17:53:20.873Z,33.50
2023-02-17T17:55:57.337Z,26.70
2023-02-17T17:58:35.119Z,24.80
2023-02-17T18:01:13.763Z,24.10
2023-02-17T18:03:55.836Z,23.70
2023-02-17T18:06:39.587Z,25.40
2023-02-17T18:09:32.025Z,23.40
2023-02-17T18:12:14.812Z,23.20
2023-02-17T18:14:54.307Z,28.30
2023-02-17T18:17:41.214Z,33.10
2023-02-17T18:20:20.879Z,23.60
2023-02-17T18:23:00.162Z,24.80
2023-02-17T18:25:35.408Z,26.80
2023-02-17T18:28:11.308Z,23.70
2023-02-17T18:30:47.247Z,20.30
2023-02-17T18:33:25.101Z,24.50
2023-02-17T18:35:59.688Z,22.10
2023-02-17T18:38:34.825Z,20.30
2023-02-17T18:41:20.486Z,18.10
2023-02-17T18:44:03.096Z,19.50
2023-02-17T18:46:39.439Z,18.90
2023-02-17T18:49:19.040Z,21.40
2023-02-17T18:51:57.302Z,23.40
2023-02-17T18:54:34.786Z,17.80
2023-02-17T18:57:12.950Z,19.90
2023-02-17T18:59:51.100Z,19.80
2023-02-17T19:02:28.692Z,17.40
2023-02-17T19:05:05.949Z,15.30
2023-02-17T19:07:42.529Z,15.50
2023-02-17T19:10:17.771Z,15.00
2023-02-17T19:12:55.542Z,15.80
2023-02-17T19:15:38.500Z,14.00
2023-02-17T19:18:19.016Z,13.50
2023-02-17T19:20:58.185Z,10.60
2023-02-17T19:23:38.651Z,8.80
2023-02-17T19:26:16.609Z,7.00
2023-02-17T19:28:57.744Z,6.60
2023-02-17T19:31:32.409Z,6.50
2023-02-17T19:34:11.877Z,5.60
2023-02-17T19:36:51.067Z,4.50
2023-02-17T19:39:27.682Z,5.00
2023-02-17T19:42:05.947Z,3.90
2023-02-17T19:44:44.077Z,3.90
2023-02-17T19:47:23.984Z,3.60
2023-02-17T19:49:58.140Z,3.40
2023-02-17T19:52:38.513Z,3.00
2023-02-17T19:55:13.693Z,2.90
2023-02-17T19:57:57.707Z,2.90
2023-02-17T20:00:37.806Z,2.90
2023-02-17T20:03:12.916Z,2.40
2023-02-17T20:05:53.128Z,2.30
2023-02-17T20:08:30.086Z,2.20
2023-02-17T20:11:11.050Z,2.40
2023-02-17T20:13:57.343Z,2.00
2023-02-17T20:16:41.937Z,2.00
2023-02-17T20:19:29.211Z,2.10
2023-02-17T20:22:06.338Z,2.30
2023-02-17T20:24:45.136Z,1.90
2023-02-17T20:27:21.680Z,2.00
2023-02-17T20:30:04.073Z,1.90
2023-02-17T20:32:39.996Z,1.90
2023-02-17T20:35:18.490Z,1.80
2023-02-17T20:37:58.244Z,1.90
2023-02-17T20:40:34.541Z,1.70
2023-02-17T20:43:13.412Z,2.60
2023-02-17T20:45:49.180Z,1.80
2023-02-17T20:48:28.435Z,2.00
2023-02-17T20:51:09.202Z,2.40
2023-02-17T20:53:46.544Z,1.80
2023-02-17T20:56:25.074Z,2.30
2023-02-17T20:59:03.892Z,2.00
2023-02-17T21:01:44.444Z,2.10
2023-02-17T21:04:21.175Z,2.30
2023-02-17T21:07:01.566Z,2.10
2023-02-17T21:09:37.596Z,2.30
2023-02-17T21:12:17.573Z,2.20
2023-02-17T21:14:54.870Z,2.10
2023-02-17T21:17:29.894Z,2.00
2023-02-17T21:20:17.690Z,2.40
2023-02-17T21:22:55.434Z,2.40
2023-02-17T21:25:39.636Z,2.20
2023-02-17T21:28:17.697Z,2.40
2023-02-17T21:31:04.504Z,2.40
2023-02-17T21:33:45.184Z,3.10
2023-02-17T21:36:29.461Z,2.50
2023-02-17T21:39:12.094Z,2.50
2023-02-17T21:41:48.707Z,2.30
2023-02-17T21:44:44.328Z,2.20
2023-02-17T21:47:21.307Z,2.30
2023-02-17T21:50:06.560Z,2.40
2023-02-17T21:52:41.409Z,2.40
2023-02-17T21:55:27.221Z,2.20
2023-02-17T21:58:05.741Z,2.70
2023-02-17T22:00:51.755Z,2.90
2023-02-17T22:03:30.215Z,2.70
2023-02-17T22:06:14.491Z,3.10
2023-02-17T22:08:51.225Z,2.70
2023-02-17T22:11:31.192Z,2.60
2023-02-17T22:14:17.834Z,2.70
2023-02-17T22:16:57.611Z,3.10
2023-02-17T22:19:36.655Z,3.10
2023-02-17T22:22:21.858Z,3.50
2023-02-17T22:24:59.957Z,3.50
2023-02-17T22:27:40.941Z,2.60
2023-02-17T22:30:21.093Z,2.90
2023-02-17T22:33:05.170Z,2.40
2023-02-17T22:35:38.441Z,2.60
2023-02-17T22:38:15.814Z,3.00
2023-02-17T22:41:00.025Z,2.70
2023-02-17T22:43:50.258Z,3.20
2023-02-17T22:46:33.954Z,2.70
2023-02-17T22:49:15.538Z,2.80
2023-02-17T22:51:52.036Z,2.50
2023-02-17T22:54:29.988Z,3.00
2023-02-17T22:57:09.766Z,2.50
2023-02-17T22:59:51.757Z,2.70
2023-02-17T23:02:29.093Z,2.90
2023-02-17T23:05:16.331Z,2.90
2023-02-17T23:07:54.247Z,2.70
2023-02-17T23:10:34.614Z,2.60
2023-02-17T23:13:12.238Z,3.10
2023-02-17T23:15:50.793Z,2.60
2023-02-17T23:18:27.198Z,2.90
2023-02-17T23:21:12.290Z,3.00
2023-02-17T23:23:54.025Z,2.70
2023-02-17T23:26:52.124Z,3.20
2023-02-17T23:29:29.498Z,3.10
2023-02-17T23:32:06.782Z,2.80
2023-02-17T23:34:46.714Z,2.70
2023-02-17T23:37:29.535Z,2.50
2023-02-17T23:40:11.978Z,2.80
2023-02-17T23:42:55.104Z,2.90
2023-02-17T23:45:33.256Z,3.00
2023-02-17T23:48:09.538Z,3.00
2023-02-17T23:50:47.008Z,2.70
2023-02-17T23:53:41.429Z,2.80
2023-02-17T23:56:18.482Z,3.00
2023-02-17T23:58:57.745Z,3.10
